Terminal Aerodrome Forecast
Issued by NWS

Home | Current Version | Previous Version | Text Only | Print | Product List | Glossary On
Versions: 1 2 3 4 5 6 7 8 9 10 11 12 13 14 15
267
FTUS45 KFGZ 241734
TAFGCN
TAF
KGCN 241734Z 2418/2518 23014G23KT P6SM SKC
     FM242000 24019G29KT P6SM SCT120
     FM250230 23011KT P6SM SCT110
     FM251500 22017G25KT P6SM FEW110=

USA.gov is the U.S. government's official web portal to all federal, state and local government web resources and services.